Arcola, Mississippi
Current Conditions -  °F | °C
As of 5:53 PM on Wednesday 28 Jan 2015 (Local Time) from KGLH Reporting Station
Clear Clear  
Wind Chill: 57°   Ceiling: Unl
Heat Index: 57°   Visibility: 10mi
Dew Point: 41°   Wind: 9mph
Humidity: 55%   Direction: 150°SSE
Pressure: 30.11"   Gusts: NA
Location:  33.27°N, 90.88°W
Report Text: KGLH 282353Z AUTO 15008KT 10SM CLR 14/05 A3011 RMK AO2 SLP204 T01390050 10178 20128 58016
Loading
Personal Weather Stations






























Interactive Weather Map New forecast layout! Learn more

10-Day Weather Forecast

Advertisements
Track Severe Weather on mobile